Time;durP1;ratioP1;P1;durP2;ratioP2;P2;SDS_P1;SDS_P2;PMS_P1;PMS_P2;Temp;Humidity;BMP_temperature;BMP_pressure;BME280_temperature;BME280_humidity;BME280_pressure;Samples;Min_cycle;Max_cycle;Signal;HPM_P1;HPM_P2
2023/02/05 00:00:01;;;;;;;4.75;4.15;;;;;;;;;;4518064;28;20037;-61
2023/02/05 00:02:11;;;;;;;4.55;4.15;;;;;;;;;;4535646;28;20075;-60
2023/02/05 00:04:21;;;;;;;4.20;3.83;;;;;;;;;;4536281;28;20033;-61
2023/02/05 00:06:32;;;;;;;3.90;3.60;;;;;;;;;;4532490;28;20045;-61
2023/02/05 00:08:42;;;;;;;3.10;2.80;;;;;;;;;;4535308;28;20025;-61
2023/02/05 00:10:52;;;;;;;2.03;1.92;;;;;;;;;;4534262;28;20048;-60
2023/02/05 00:13:03;;;;;;;2.58;2.38;;;;;;;;;;4535572;28;20037;-59
2023/02/05 00:15:13;;;;;;;2.80;2.60;;;;;;;;;;4535458;28;20045;-60
2023/02/05 00:17:23;;;;;;;2.70;2.50;;;;;;;;;;4536013;28;20115;-61
2023/02/05 00:19:34;;;;;;;2.80;2.60;;;;;;;;;;4518366;28;20505;-61
2023/02/05 00:21:44;;;;;;;3.13;2.83;;;;;;;;;;4536230;28;20045;-60
2023/02/05 00:23:54;;;;;;;2.97;2.78;;;;;;;;;;4518862;28;20160;-60
2023/02/05 00:26:05;;;;;;;2.97;2.67;;;;;;;;;;4535380;28;20048;-60
2023/02/05 00:28:15;;;;;;;3.20;2.90;;;;;;;;;;4535937;28;20029;-61
2023/02/05 00:30:27;;;;;;;3.17;2.88;;;;;;;;;;4534502;28;20504;-60
2023/02/05 00:32:38;;;;;;;3.20;2.90;;;;;;;;;;4534643;28;20033;-60
2023/02/05 00:34:49;;;;;;;3.10;2.80;;;;;;;;;;4535361;28;20036;-61
2023/02/05 00:36:59;;;;;;;2.85;2.65;;;;;;;;;;4535447;28;20041;-61
2023/02/05 00:39:10;;;;;;;3.10;2.80;;;;;;;;;;4495434;28;20049;-61
2023/02/05 00:41:20;;;;;;;3.35;3.05;;;;;;;;;;4533299;28;20028;-60
2023/02/05 00:43:30;;;;;;;3.00;2.80;;;;;;;;;;4534611;28;20037;-61
2023/02/05 00:45:41;;;;;;;2.70;2.50;;;;;;;;;;4532874;28;20612;-61
2023/02/05 00:47:51;;;;;;;3.00;2.80;;;;;;;;;;4531240;28;20021;-61
2023/02/05 00:50:01;;;;;;;2.75;2.55;;;;;;;;;;4533161;28;20121;-61
2023/02/05 00:52:13;;;;;;;2.90;2.70;;;;;;;;;;4531555;28;20025;-61
2023/02/05 00:54:24;;;;;;;2.95;2.70;;;;;;;;;;4516442;28;20041;-60
2023/02/05 00:56:35;;;;;;;2.80;2.60;;;;;;;;;;4532714;28;20037;-60
2023/02/05 00:58:48;;;;;;;2.72;2.53;;;;;;;;;;4532213;28;20401;-61
2023/02/05 01:00:59;;;;;;;2.72;2.53;;;;;;;;;;4532698;28;20029;-60
2023/02/05 01:03:09;;;;;;;2.60;2.40;;;;;;;;;;4532236;28;20051;-61
2023/02/05 01:05:19;;;;;;;2.72;2.53;;;;;;;;;;4514387;28;20046;-61
2023/02/05 01:07:30;;;;;;;2.78;2.58;;;;;;;;;;4532546;28;20072;-60
2023/02/05 01:09:40;;;;;;;3.42;3.13;;;;;;;;;;4532822;28;20565;-60
2023/02/05 01:11:50;;;;;;;2.80;2.60;;;;;;;;;;4534062;28;20132;-61
2023/02/05 01:14:01;;;;;;;2.38;2.17;;;;;;;;;;4533957;28;20033;-61
2023/02/05 01:16:11;;;;;;;2.50;2.30;;;;;;;;;;4514477;28;20044;-61
2023/02/05 01:18:21;;;;;;;2.40;2.20;;;;;;;;;;4496528;28;20051;-61
2023/02/05 01:20:34;;;;;;;2.40;2.20;;;;;;;;;;4502162;28;20029;-61
2023/02/05 01:22:45;;;;;;;2.50;2.30;;;;;;;;;;4517364;28;20057;-60
2023/02/05 01:24:55;;;;;;;2.53;2.33;;;;;;;;;;4514248;28;20616;-60
2023/02/05 01:27:05;;;;;;;2.15;2.00;;;;;;;;;;4491679;28;20345;-61
2023/02/05 01:29:16;;;;;;;1.90;1.70;;;;;;;;;;4502435;28;20056;-60
2023/02/05 01:31:28;;;;;;;1.70;1.60;;;;;;;;;;4515016;28;20113;-60
2023/02/05 01:33:39;;;;;;;1.60;1.50;;;;;;;;;;4500199;28;20884;-60
2023/02/05 01:35:49;;;;;;;1.50;1.40;;;;;;;;;;4522750;28;20102;-61
2023/02/05 01:38:00;;;;;;;1.70;1.60;;;;;;;;;;4534540;28;20037;-60
2023/02/05 01:40:14;;;;;;;1.95;1.70;;;;;;;;;;4538422;28;20032;-61
2023/02/05 01:42:26;;;;;;;1.70;1.52;;;;;;;;;;4536683;28;20029;-60
2023/02/05 01:44:37;;;;;;;1.65;1.52;;;;;;;;;;4502589;28;20038;-61
2023/02/05 01:46:47;;;;;;;1.77;1.58;;;;;;;;;;4537624;28;20045;-61
2023/02/05 01:48:58;;;;;;;1.42;1.33;;;;;;;;;;4537924;28;20525;-61
2023/02/05 01:51:10;;;;;;;1.83;1.52;;;;;;;;;;4537793;28;20039;-61
2023/02/05 01:53:25;;;;;;;1.63;1.40;;;;;;;;;;4537413;28;20033;-61
2023/02/05 01:55:39;;;;;;;1.27;1.17;;;;;;;;;;4518952;28;20069;-60
2023/02/05 01:57:50;;;;;;;1.40;1.30;;;;;;;;;;4537312;28;20062;-60
2023/02/05 02:00:01;;;;;;;1.35;1.23;;;;;;;;;;4519253;28;20099;-61
2023/02/05 02:02:11;;;;;;;1.50;1.40;;;;;;;;;;4519317;28;20513;-61
2023/02/05 02:04:38;;;;;;;1.40;1.30;;;;;;;;;;4537547;28;20618;-61
2023/02/05 02:06:49;;;;;;;1.38;1.27;;;;;;;;;;4538049;28;20044;-59
2023/02/05 02:09:00;;;;;;;1.40;1.30;;;;;;;;;;4519204;28;20029;-61
2023/02/05 02:11:12;;;;;;;1.40;1.30;;;;;;;;;;4537516;28;20033;-61
2023/02/05 02:13:22;;;;;;;1.40;1.30;;;;;;;;;;4537973;28;20037;-60
2023/02/05 02:15:33;;;;;;;1.30;1.20;;;;;;;;;;4520518;28;20044;-60
2023/02/05 02:17:45;;;;;;;1.63;1.33;;;;;;;;;;4537439;28;20489;-61
2023/02/05 02:20:00;;;;;;;1.40;1.30;;;;;;;;;;4537313;28;20198;-60
2023/02/05 02:22:13;;;;;;;1.20;1.10;;;;;;;;;;4538303;28;21013;-60
2023/02/05 02:24:41;;;;;;;1.40;1.30;;;;;;;;;;4537692;28;20049;-60
2023/02/05 02:26:51;;;;;;;;;;;;;;;;;;4535000;28;20048;-60
2023/02/05 02:29:02;;;;;;;1.85;1.30;;;;;;;;;;4521740;28;20447;-60
2023/02/05 02:31:21;;;;;;;1.67;1.40;;;;;;;;;;4519652;28;20593;-60
2023/02/05 02:33:31;;;;;;;1.40;1.30;;;;;;;;;;4508993;28;20044;-63
2023/02/05 02:35:51;;;;;;;1.70;1.40;;;;;;;;;;4518276;28;20036;-61
2023/02/05 02:38:28;;;;;;;1.45;1.25;;;;;;;;;;4518688;28;20144;-61
2023/02/05 02:40:43;;;;;;;1.20;1.10;;;;;;;;;;4487484;28;20050;-61
2023/02/05 02:43:08;;;;;;;1.20;1.10;;;;;;;;;;4521310;28;20239;-63
2023/02/05 02:45:20;;;;;;;1.30;1.20;;;;;;;;;;4520786;28;20152;-60
2023/02/05 02:47:35;;;;;;;1.40;1.30;;;;;;;;;;4521122;28;20625;-60
2023/02/05 02:49:48;;;;;;;1.60;1.50;;;;;;;;;;4519250;28;21513;-60
2023/02/05 02:52:00;;;;;;;1.40;1.30;;;;;;;;;;4538139;28;20037;-62
2023/02/05 02:54:13;;;;;;;2.15;1.50;;;;;;;;;;4538522;28;20078;-60
2023/02/05 02:56:24;;;;;;;1.50;1.40;;;;;;;;;;4520277;28;20033;-60
2023/02/05 02:58:38;;;;;;;1.40;1.30;;;;;;;;;;4520365;28;20135;-61
2023/02/05 03:00:50;;;;;;;1.40;1.30;;;;;;;;;;4537314;28;20639;-60
2023/02/05 03:03:04;;;;;;;1.40;1.30;;;;;;;;;;4538953;28;20025;-61
2023/02/05 03:05:17;;;;;;;1.20;1.10;;;;;;;;;;4519729;28;20048;-60
2023/02/05 03:07:31;;;;;;;1.42;1.33;;;;;;;;;;4519006;28;20033;-60
2023/02/05 03:09:45;;;;;;;1.30;1.20;;;;;;;;;;4536542;28;20989;-61
2023/02/05 03:11:56;;;;;;;1.50;1.40;;;;;;;;;;4519648;28;20033;-61
2023/02/05 03:14:08;;;;;;;1.35;1.25;;;;;;;;;;4521515;28;20149;-60
2023/02/05 03:16:23;;;;;;;1.52;1.35;;;;;;;;;;4515232;28;20040;-60
2023/02/05 03:18:33;;;;;;;1.27;1.15;;;;;;;;;;4502489;28;20573;-61
2023/02/05 03:20:46;;;;;;;1.92;1.30;;;;;;;;;;4537858;28;20033;-60
2023/02/05 03:22:58;;;;;;;1.23;1.13;;;;;;;;;;4519006;28;20480;-61
2023/02/05 03:25:09;;;;;;;1.20;1.10;;;;;;;;;;4518892;28;20042;-60
2023/02/05 03:27:22;;;;;;;2.10;1.77;;;;;;;;;;4519425;28;21219;-61
2023/02/05 03:29:35;;;;;;;1.30;1.10;;;;;;;;;;4536980;28;20037;-61
2023/02/05 03:31:56;;;;;;;1.50;1.38;;;;;;;;;;4519605;28;20076;-61
2023/02/05 03:34:10;;;;;;;1.40;1.30;;;;;;;;;;4535778;28;20044;-61
2023/02/05 03:36:39;;;;;;;1.40;1.30;;;;;;;;;;4517941;28;20175;-61
2023/02/05 03:39:09;;;;;;;1.10;1.00;;;;;;;;;;4520361;28;20099;-60
2023/02/05 03:41:54;;;;;;;1.45;1.17;;;;;;;;;;4519752;28;20036;-60
2023/02/05 03:44:02;;;;;;;1.30;1.20;;;;;;;;;;4512966;28;20044;-60
2023/02/05 03:46:18;;;;;;;1.33;1.23;;;;;;;;;;4519227;28;20042;-60
2023/02/05 03:48:44;;;;;;;1.20;1.10;;;;;;;;;;4536355;28;20029;-61
2023/02/05 03:51:12;;;;;;;1.40;1.10;;;;;;;;;;4519385;28;20143;-61
2023/02/05 03:53:48;;;;;;;1.30;1.13;;;;;;;;;;4519716;28;20760;-60
2023/02/05 03:56:02;;;;;;;1.20;1.10;;;;;;;;;;4538116;28;20040;-61
2023/02/05 03:58:23;;;;;;;1.48;1.20;;;;;;;;;;4519030;28;20033;-62
2023/02/05 04:00:34;;;;;;;1.40;1.30;;;;;;;;;;4537535;28;20052;-61
2023/02/05 04:02:45;;;;;;;1.30;1.20;;;;;;;;;;4537537;28;20647;-62
2023/02/05 04:05:01;;;;;;;1.25;1.10;;;;;;;;;;4518945;28;20792;-61
2023/02/05 04:07:12;;;;;;;1.35;1.25;;;;;;;;;;4518802;28;20822;-61
2023/02/05 04:09:23;;;;;;;1.60;1.40;;;;;;;;;;4518678;28;20130;-60
2023/02/05 04:11:34;;;;;;;1.60;1.20;;;;;;;;;;4519220;28;21147;-60
2023/02/05 04:13:47;;;;;;;1.60;1.27;;;;;;;;;;4521283;28;20056;-61
2023/02/05 04:15:58;;;;;;;1.52;1.20;;;;;;;;;;4518581;28;20081;-61
2023/02/05 04:18:08;;;;;;;1.45;1.30;;;;;;;;;;4520711;28;20367;-61
2023/02/05 04:20:18;;;;;;;1.23;1.13;;;;;;;;;;4538149;28;20040;-61
2023/02/05 04:22:29;;;;;;;1.30;1.20;;;;;;;;;;4519292;28;20033;-62
2023/02/05 04:24:39;;;;;;;1.20;1.10;;;;;;;;;;4517914;28;20470;-60
2023/02/05 04:26:51;;;;;;;1.13;1.00;;;;;;;;;;4519188;28;20084;-60
2023/02/05 04:29:02;;;;;;;1.23;1.00;;;;;;;;;;4535533;28;20040;-60
2023/02/05 04:31:15;;;;;;;0.82;0.82;;;;;;;;;;4518339;28;20683;-61
2023/02/05 04:33:26;;;;;;;1.30;1.20;;;;;;;;;;4519610;28;20045;-60
2023/02/05 04:35:36;;;;;;;1.33;1.20;;;;;;;;;;4538255;28;20048;-60
2023/02/05 04:37:47;;;;;;;1.35;1.10;;;;;;;;;;4537049;28;20087;-61
2023/02/05 04:39:58;;;;;;;1.80;1.38;;;;;;;;;;4518623;28;20099;-61
2023/02/05 04:42:08;;;;;;;1.85;1.30;;;;;;;;;;4537458;28;20447;-61
2023/02/05 04:44:19;;;;;;;1.48;1.05;;;;;;;;;;4536830;28;20115;-60
2023/02/05 04:46:29;;;;;;;1.15;1.05;;;;;;;;;;4520022;28;20057;-61
2023/02/05 04:48:39;;;;;;;1.20;1.10;;;;;;;;;;4535682;28;20047;-61
2023/02/05 04:50:50;;;;;;;1.20;1.10;;;;;;;;;;4537238;28;20032;-61
2023/02/05 04:53:01;;;;;;;1.20;1.10;;;;;;;;;;4536312;28;20446;-62
2023/02/05 04:55:11;;;;;;;1.20;1.10;;;;;;;;;;4536734;28;20041;-60
2023/02/05 04:57:23;;;;;;;1.17;1.08;;;;;;;;;;4537133;28;20116;-61
2023/02/05 04:59:33;;;;;;;1.67;1.10;;;;;;;;;;4537009;28;20140;-60
2023/02/05 05:01:43;;;;;;;1.10;1.00;;;;;;;;;;4536879;28;20482;-61
2023/02/05 05:03:54;;;;;;;1.67;1.20;;;;;;;;;;4537432;28;20033;-60
2023/02/05 05:06:04;;;;;;;1.10;1.00;;;;;;;;;;4537117;28;20463;-61
2023/02/05 05:08:14;;;;;;;1.25;1.08;;;;;;;;;;4536399;28;20033;-61
2023/02/05 05:10:25;;;;;;;1.20;1.10;;;;;;;;;;4536922;28;20462;-62
2023/02/05 05:12:36;;;;;;;1.30;1.20;;;;;;;;;;4536416;28;20033;-60
2023/02/05 05:14:46;;;;;;;1.58;1.25;;;;;;;;;;4536787;28;20460;-61
2023/02/05 05:16:56;;;;;;;1.38;1.27;;;;;;;;;;4536367;28;20037;-61
2023/02/05 05:19:07;;;;;;;1.45;1.20;;;;;;;;;;4536642;28;20196;-60
2023/02/05 05:21:17;;;;;;;1.20;1.10;;;;;;;;;;4536318;28;20045;-61
2023/02/05 05:23:27;;;;;;;1.20;1.10;;;;;;;;;;4536541;28;20048;-60
2023/02/05 05:25:41;;;;;;;1.20;1.10;;;;;;;;;;4536976;28;20041;-60
2023/02/05 05:27:51;;;;;;;1.30;1.00;;;;;;;;;;4536042;28;20643;-60
2023/02/05 05:30:02;;;;;;;1.30;1.20;;;;;;;;;;4536495;28;20049;-60
2023/02/05 05:32:12;;;;;;;1.45;1.00;;;;;;;;;;4536918;28;20120;-60
2023/02/05 05:34:23;;;;;;;1.00;1.00;;;;;;;;;;4535797;28;20048;-61
2023/02/05 05:36:33;;;;;;;1.08;0.98;;;;;;;;;;4536838;28;20048;-61
2023/02/05 05:38:43;;;;;;;1.50;1.30;;;;;;;;;;4537031;28;20481;-60
2023/02/05 05:45:52;;;;;;;1.20;1.10;;;;;;;;;;4535798;28;20048;-61
2023/02/05 05:48:02;;;;;;;1.33;1.08;;;;;;;;;;4517501;28;20038;-60
2023/02/05 05:50:12;;;;;;;1.23;1.10;;;;;;;;;;4537304;28;20397;-61
2023/02/05 05:52:23;;;;;;;1.13;1.02;;;;;;;;;;4535115;28;20041;-60
2023/02/05 05:54:33;;;;;;;1.50;1.10;;;;;;;;;;4536535;28;20052;-61
2023/02/05 05:56:44;;;;;;;1.13;1.05;;;;;;;;;;4536534;28;20017;-60
2023/02/05 05:58:54;;;;;;;1.67;1.20;;;;;;;;;;4535348;28;20559;-61
2023/02/05 06:01:05;;;;;;;1.35;1.25;;;;;;;;;;4523761;28;20044;-60
2023/02/05 06:03:15;;;;;;;1.20;1.10;;;;;;;;;;4539890;28;20040;-61
2023/02/05 06:05:26;;;;;;;1.10;1.00;;;;;;;;;;4538848;28;20344;-60
2023/02/05 06:07:36;;;;;;;1.58;1.20;;;;;;;;;;4538824;28;20041;-61
2023/02/05 06:09:46;;;;;;;1.10;1.00;;;;;;;;;;4539671;28;20507;-61
2023/02/05 06:11:57;;;;;;;1.25;1.15;;;;;;;;;;4521353;28;20401;-61
2023/02/05 06:14:07;;;;;;;1.27;1.00;;;;;;;;;;4538592;28;20063;-60
2023/02/05 06:16:17;;;;;;;1.52;1.30;;;;;;;;;;4520882;28;20077;-60
2023/02/05 06:18:28;;;;;;;0.98;0.90;;;;;;;;;;4539448;28;20115;-62
2023/02/05 06:20:38;;;;;;;1.25;1.10;;;;;;;;;;4538794;28;20179;-61
2023/02/05 06:22:48;;;;;;;1.20;1.10;;;;;;;;;;4539319;28;20041;-61
2023/02/05 06:24:59;;;;;;;1.75;1.30;;;;;;;;;;4521352;28;20041;-61
2023/02/05 06:27:09;;;;;;;1.48;1.30;;;;;;;;;;4538585;28;20037;-61
2023/02/05 06:29:19;;;;;;;1.40;1.30;;;;;;;;;;4520450;28;20563;-61
2023/02/05 06:31:33;;;;;;;1.48;1.25;;;;;;;;;;4539905;28;20067;-61
2023/02/05 06:33:45;;;;;;;0.98;0.98;;;;;;;;;;4539177;28;20695;-60
2023/02/05 06:35:55;;;;;;;1.70;1.27;;;;;;;;;;4538412;28;20119;-61
2023/02/05 06:38:05;;;;;;;1.88;1.25;;;;;;;;;;4538305;28;20497;-61
2023/02/05 06:40:16;;;;;;;2.17;1.48;;;;;;;;;;4538738;28;20048;-60
2023/02/05 06:42:27;;;;;;;1.85;1.45;;;;;;;;;;4539610;28;20065;-61
2023/02/05 06:44:37;;;;;;;1.52;1.42;;;;;;;;;;4539298;28;20068;-61
2023/02/05 06:46:47;;;;;;;1.60;1.30;;;;;;;;;;4537115;28;20052;-61
2023/02/05 06:48:58;;;;;;;1.45;1.30;;;;;;;;;;4538488;28;20169;-61
2023/02/05 06:51:08;;;;;;;1.33;1.23;;;;;;;;;;4538898;28;20393;-61
2023/02/05 06:53:18;;;;;;;1.20;1.10;;;;;;;;;;4540275;28;20116;-60
2023/02/05 06:55:29;;;;;;;1.20;1.10;;;;;;;;;;4538741;28;20132;-61
2023/02/05 06:57:39;;;;;;;1.50;1.20;;;;;;;;;;4539657;28;20080;-61
2023/02/05 06:59:49;;;;;;;1.27;1.00;;;;;;;;;;4539664;28;20029;-59
2023/02/05 07:02:00;;;;;;;1.30;1.20;;;;;;;;;;4538421;28;20032;-61
2023/02/05 07:04:10;;;;;;;1.58;1.20;;;;;;;;;;4539446;28;20048;-60
2023/02/05 07:06:22;;;;;;;1.40;1.30;;;;;;;;;;4538970;28;20138;-61
2023/02/05 07:08:32;;;;;;;1.20;1.00;;;;;;;;;;4538594;28;20044;-62
2023/02/05 07:10:43;;;;;;;1.30;1.20;;;;;;;;;;4520847;28;20049;-62
2023/02/05 07:12:53;;;;;;;1.40;1.10;;;;;;;;;;4519656;28;20140;-62
2023/02/05 07:15:03;;;;;;;1.48;1.05;;;;;;;;;;4539002;28;20604;-62
2023/02/05 07:17:14;;;;;;;1.33;1.20;;;;;;;;;;4537815;28;20060;-62
2023/02/05 07:19:24;;;;;;;1.30;1.20;;;;;;;;;;4539023;28;20036;-62
2023/02/05 07:21:35;;;;;;;1.30;1.20;;;;;;;;;;4521207;28;20475;-61
2023/02/05 07:23:45;;;;;;;1.30;1.20;;;;;;;;;;4537280;28;20041;-62
2023/02/05 07:25:55;;;;;;;1.30;1.15;;;;;;;;;;4538014;28;20045;-62
2023/02/05 07:28:07;;;;;;;1.65;1.30;;;;;;;;;;4538168;28;20069;-62
2023/02/05 07:30:17;;;;;;;1.50;1.30;;;;;;;;;;4537793;28;20044;-62
2023/02/05 07:32:27;;;;;;;1.33;1.20;;;;;;;;;;4519951;28;20091;-61
2023/02/05 07:34:38;;;;;;;1.55;1.30;;;;;;;;;;4538617;28;20044;-62
2023/02/05 07:36:49;;;;;;;1.70;1.20;;;;;;;;;;4537135;28;20037;-62
2023/02/05 07:38:59;;;;;;;1.90;1.30;;;;;;;;;;4538986;28;20226;-62
2023/02/05 07:41:11;;;;;;;1.98;1.20;;;;;;;;;;4537547;28;20041;-62
2023/02/05 07:43:21;;;;;;;1.20;1.10;;;;;;;;;;4537642;28;20044;-62
2023/02/05 07:45:32;;;;;;;1.42;1.30;;;;;;;;;;4536420;28;20599;-62
2023/02/05 07:47:42;;;;;;;1.88;1.52;;;;;;;;;;4536977;28;20671;-62
2023/02/05 07:49:52;;;;;;;1.75;1.50;;;;;;;;;;4536998;28;20047;-61
2023/02/05 07:52:03;;;;;;;1.80;1.30;;;;;;;;;;4536606;28;20071;-62
2023/02/05 07:54:14;;;;;;;1.60;1.30;;;;;;;;;;4537226;28;20040;-62
2023/02/05 07:56:24;;;;;;;1.58;1.30;;;;;;;;;;4537033;28;20048;-62
2023/02/05 07:58:35;;;;;;;1.52;1.40;;;;;;;;;;4536449;28;20448;-62
2023/02/05 08:00:45;;;;;;;1.50;1.33;;;;;;;;;;4520959;28;20034;-62
2023/02/05 08:02:55;;;;;;;1.40;1.30;;;;;;;;;;4536894;28;20056;-62
2023/02/05 08:05:06;;;;;;;1.30;1.20;;;;;;;;;;4536517;28;20041;-62
2023/02/05 08:07:17;;;;;;;1.42;1.33;;;;;;;;;;4537269;28;20033;-62
2023/02/05 08:09:27;;;;;;;1.40;1.17;;;;;;;;;;4521803;28;20569;-63
2023/02/05 08:11:37;;;;;;;1.52;1.20;;;;;;;;;;4536434;28;20282;-62
2023/02/05 08:13:47;;;;;;;2.03;1.38;;;;;;;;;;4535910;28;20033;-62
2023/02/05 08:15:58;;;;;;;1.58;1.20;;;;;;;;;;4535636;28;20124;-63
2023/02/05 08:18:08;;;;;;;1.30;1.20;;;;;;;;;;4518649;28;20490;-63
2023/02/05 08:20:18;;;;;;;1.42;1.30;;;;;;;;;;4535835;28;20432;-63
2023/02/05 08:22:29;;;;;;;1.70;1.38;;;;;;;;;;4536738;28;20091;-62
2023/02/05 08:24:39;;;;;;;2.03;1.40;;;;;;;;;;4535552;28;20588;-63
2023/02/05 08:26:49;;;;;;;2.42;1.40;;;;;;;;;;4517472;28;20068;-62
2023/02/05 08:29:00;;;;;;;1.70;1.60;;;;;;;;;;4536777;28;20033;-63
2023/02/05 08:31:15;;;;;;;2.22;1.70;;;;;;;;;;4520053;28;20034;-63
2023/02/05 08:33:25;;;;;;;1.75;1.55;;;;;;;;;;4535640;28;20037;-63
2023/02/05 08:35:36;;;;;;;1.40;1.30;;;;;;;;;;4537125;28;20045;-64
2023/02/05 08:37:46;;;;;;;1.90;1.30;;;;;;;;;;4536362;28;20024;-62
2023/02/05 08:39:56;;;;;;;1.73;1.48;;;;;;;;;;4535816;28;20087;-62
2023/02/05 08:42:07;;;;;;;2.45;1.52;;;;;;;;;;4519173;28;20053;-63
2023/02/05 08:44:17;;;;;;;1.98;1.60;;;;;;;;;;4517527;28;20569;-64
2023/02/05 08:46:27;;;;;;;1.75;1.60;;;;;;;;;;4536293;28;20048;-64
2023/02/05 08:48:38;;;;;;;2.05;1.85;;;;;;;;;;4535664;28;20516;-64
2023/02/05 08:50:48;;;;;;;2.55;2.35;;;;;;;;;;4536311;28;20082;-64
2023/02/05 08:52:58;;;;;;;1.70;1.60;;;;;;;;;;4536150;28;20033;-64
2023/02/05 08:55:08;;;;;;;1.15;1.05;;;;;;;;;;4534840;28;20094;-63
2023/02/05 08:57:19;;;;;;;0.70;0.70;;;;;;;;;;4535902;28;20164;-64
2023/02/05 08:59:29;;;;;;;1.60;1.50;;;;;;;;;;4535372;28;20041;-64
2023/02/05 09:01:41;;;;;;;3.30;2.90;;;;;;;;;;4519348;28;20476;-64
2023/02/05 09:03:51;;;;;;;3.20;2.88;;;;;;;;;;4534638;28;20044;-63
2023/02/05 09:06:06;;;;;;;2.38;1.90;;;;;;;;;;4535027;28;20041;-61
2023/02/05 09:08:16;;;;;;;1.27;1.17;;;;;;;;;;4517190;28;20045;-62
2023/02/05 09:10:27;;;;;;;2.13;1.77;;;;;;;;;;4537080;28;20048;-63
2023/02/05 09:12:37;;;;;;;2.35;1.52;;;;;;;;;;4519193;28;20415;-62
2023/02/05 09:14:47;;;;;;;1.63;1.42;;;;;;;;;;4536639;28;20179;-63
2023/02/05 09:16:58;;;;;;;1.95;1.80;;;;;;;;;;4535835;28;20555;-63
2023/02/05 09:19:08;;;;;;;1.30;1.13;;;;;;;;;;4537129;28;20094;-63
2023/02/05 09:21:18;;;;;;;1.38;1.27;;;;;;;;;;4536796;28;20120;-63
2023/02/05 09:23:29;;;;;;;0.82;0.82;;;;;;;;;;4536721;28;20033;-62
2023/02/05 09:25:40;;;;;;;0.80;0.80;;;;;;;;;;4536336;28;20795;-62
2023/02/05 09:27:50;;;;;;;0.75;0.75;;;;;;;;;;4536846;28;20040;-62
2023/02/05 09:30:00;;;;;;;1.25;1.10;;;;;;;;;;4535484;28;20103;-62
2023/02/05 09:32:10;;;;;;;3.05;2.75;;;;;;;;;;4536452;28;20037;-62
2023/02/05 09:34:21;;;;;;;3.63;3.00;;;;;;;;;;4537058;28;20041;-60
2023/02/05 09:36:31;;;;;;;3.47;3.17;;;;;;;;;;4538458;28;20029;-62
2023/02/05 09:38:42;;;;;;;6.28;5.57;;;;;;;;;;4540004;28;20037;-62
2023/02/05 09:40:55;;;;;;;6.10;5.50;;;;;;;;;;4521546;28;20041;-62
2023/02/05 09:43:24;;;;;;;6.57;5.97;;;;;;;;;;4539957;28;20036;-62
2023/02/05 09:45:37;;;;;;;5.95;5.45;;;;;;;;;;4539844;28;20757;-62
2023/02/05 09:47:58;;;;;;;6.95;6.35;;;;;;;;;;4539535;28;20031;-62
2023/02/05 09:50:14;;;;;;;6.78;6.18;;;;;;;;;;4521028;28;20077;-62
2023/02/05 09:52:37;;;;;;;6.22;5.63;;;;;;;;;;4525178;28;20080;-62
2023/02/05 09:54:54;;;;;;;10.50;9.50;;;;;;;;;;4539057;28;20115;-62
2023/02/05 09:57:06;;;;;;;8.65;7.85;;;;;;;;;;4538054;28;20041;-63
2023/02/05 09:59:21;;;;;;;6.90;6.28;;;;;;;;;;4539823;28;20048;-62
2023/02/05 10:01:39;;;;;;;5.72;5.22;;;;;;;;;;4521325;28;20084;-62
2023/02/05 10:03:53;;;;;;;6.60;6.00;;;;;;;;;;4538976;28;20064;-63
2023/02/05 10:06:12;;;;;;;7.80;7.10;;;;;;;;;;4538328;28;20045;-62
2023/02/05 10:08:30;;;;;;;7.55;6.85;;;;;;;;;;4538883;28;20029;-63
2023/02/05 10:10:46;;;;;;;7.20;6.60;;;;;;;;;;4540528;28;20043;-63
2023/02/05 10:12:56;;;;;;;6.80;6.20;;;;;;;;;;4523116;28;20577;-63
2023/02/05 10:15:17;;;;;;;4.35;3.65;;;;;;;;;;4520079;28;20034;-63
2023/02/05 10:17:28;;;;;;;3.00;2.60;;;;;;;;;;4538595;28;20033;-63
2023/02/05 10:19:38;;;;;;;2.97;2.67;;;;;;;;;;4539807;28;20033;-63
2023/02/05 10:22:00;;;;;;;2.60;2.40;;;;;;;;;;4520284;28;20040;-62
2023/02/05 10:24:22;;;;;;;3.33;2.80;;;;;;;;;;4538293;28;20120;-62
2023/02/05 10:27:00;;;;;;;3.30;2.97;;;;;;;;;;4539190;28;20131;-63
2023/02/05 10:29:17;;;;;;;2.97;2.65;;;;;;;;;;4506536;28;20144;-62
2023/02/05 10:31:46;;;;;;;2.15;1.90;;;;;;;;;;4539993;28;20037;-63
2023/02/05 10:34:05;;;;;;;3.22;2.55;;;;;;;;;;4539593;28;20035;-62
2023/02/05 10:36:20;;;;;;;1.23;1.13;;;;;;;;;;4539578;28;20663;-62
2023/02/05 10:38:33;;;;;;;0.55;0.55;;;;;;;;;;4538380;28;20036;-63
2023/02/05 10:40:45;;;;;;;0.52;0.52;;;;;;;;;;4538877;28;20106;-63
2023/02/05 10:43:14;;;;;;;0.60;0.60;;;;;;;;;;4539218;28;20047;-63
2023/02/05 10:45:26;;;;;;;1.67;1.58;;;;;;;;;;4539143;28;20045;-63
2023/02/05 10:47:47;;;;;;;2.60;2.40;;;;;;;;;;4520330;28;20042;-62
2023/02/05 10:50:01;;;;;;;0.57;0.57;;;;;;;;;;4520782;28;20041;-62
2023/02/05 10:52:13;;;;;;;0.65;0.65;;;;;;;;;;4536956;28;20551;-62
2023/02/05 10:54:30;;;;;;;0.80;0.80;;;;;;;;;;4538993;28;20036;-62
2023/02/05 10:56:42;;;;;;;1.55;1.20;;;;;;;;;;4538397;28;20029;-62
2023/02/05 10:58:53;;;;;;;2.28;1.70;;;;;;;;;;4519039;28;20043;-62
2023/02/05 11:01:05;;;;;;;2.10;1.90;;;;;;;;;;4538294;28;20225;-61
2023/02/05 11:03:16;;;;;;;2.75;2.55;;;;;;;;;;4520155;28;20033;-62
2023/02/05 11:05:33;;;;;;;2.70;2.50;;;;;;;;;;4536168;28;20099;-62
2023/02/05 11:07:45;;;;;;;3.85;3.55;;;;;;;;;;4534661;28;20103;-62
2023/02/05 11:10:11;;;;;;;3.75;3.45;;;;;;;;;;4537734;28;20087;-62
2023/02/05 11:12:25;;;;;;;4.43;4.03;;;;;;;;;;4538401;28;20562;-62
2023/02/05 11:14:37;;;;;;;5.22;4.72;;;;;;;;;;4538615;28;20094;-62
2023/02/05 11:16:47;;;;;;;5.47;5.00;;;;;;;;;;4537297;28;20036;-62
2023/02/05 11:18:59;;;;;;;6.00;5.50;;;;;;;;;;4538034;28;20048;-62
2023/02/05 11:21:10;;;;;;;6.72;6.13;;;;;;;;;;4538962;28;20029;-62
2023/02/05 11:23:22;;;;;;;6.18;5.68;;;;;;;;;;4519480;28;20504;-62
2023/02/05 11:25:32;;;;;;;6.75;6.25;;;;;;;;;;4538333;28;20033;-62
2023/02/05 11:27:58;;;;;;;7.95;7.35;;;;;;;;;;4538253;28;20033;-62
2023/02/05 11:30:38;;;;;;;8.52;7.82;;;;;;;;;;4537397;28;20080;-62
2023/02/05 11:32:48;;;;;;;8.98;8.27;;;;;;;;;;4494440;28;20588;-64
2023/02/05 11:35:18;;;;;;;8.32;7.63;;;;;;;;;;4533172;28;20040;-67
2023/02/05 11:37:28;;;;;;;9.25;8.45;;;;;;;;;;4536561;28;20536;-62
2023/02/05 11:39:39;;;;;;;9.63;8.73;;;;;;;;;;4537231;28;20041;-63
2023/02/05 11:41:55;;;;;;;9.60;8.80;;;;;;;;;;4536490;28;20037;-63
2023/02/05 11:44:05;;;;;;;9.63;8.82;;;;;;;;;;4536598;28;20679;-62
2023/02/05 11:46:17;;;;;;;9.82;9.00;;;;;;;;;;4536048;28;20041;-63
2023/02/05 11:48:33;;;;;;;9.82;9.02;;;;;;;;;;4535230;28;20020;-63
2023/02/05 11:50:43;;;;;;;10.13;9.23;;;;;;;;;;4535501;28;20944;-62
2023/02/05 11:52:55;;;;;;;9.40;8.60;;;;;;;;;;4503344;28;20198;-64
2023/02/05 11:55:07;;;;;;;9.98;9.18;;;;;;;;;;4536864;28;20040;-66
2023/02/05 11:57:17;;;;;;;9.52;8.73;;;;;;;;;;4534499;28;20037;-62
2023/02/05 11:59:27;;;;;;;10.02;8.95;;;;;;;;;;4526940;28;20053;-64
2023/02/05 12:01:38;;;;;;;10.25;9.45;;;;;;;;;;4528447;28;20622;-62
2023/02/05 12:04:03;;;;;;;10.23;9.43;;;;;;;;;;4501891;28;20030;-63
2023/02/05 12:06:17;;;;;;;10.25;9.38;;;;;;;;;;4534500;28;20500;-62
2023/02/05 12:08:30;;;;;;;10.75;9.85;;;;;;;;;;4517580;28;20692;-62
2023/02/05 12:10:44;;;;;;;11.27;10.38;;;;;;;;;;4534736;28;20571;-62
2023/02/05 12:13:06;;;;;;;10.75;9.85;;;;;;;;;;4516893;28;20032;-62
2023/02/05 12:15:25;;;;;;;11.13;10.20;;;;;;;;;;4537383;28;20422;-64
2023/02/05 12:17:57;;;;;;;10.95;10.05;;;;;;;;;;4536032;28;20568;-65
2023/02/05 12:20:18;;;;;;;10.93;9.93;;;;;;;;;;4537262;28;20651;-66
2023/02/05 12:22:28;;;;;;;11.10;10.10;;;;;;;;;;4538356;28;20107;-70
2023/02/05 12:24:57;;;;;;;11.05;10.15;;;;;;;;;;4538323;28;20146;-61
2023/02/05 12:27:17;;;;;;;12.10;11.10;;;;;;;;;;4535457;28;20049;-65
2023/02/05 12:29:46;;;;;;;11.77;10.88;;;;;;;;;;4535863;28;20056;-63
2023/02/05 12:31:59;;;;;;;12.07;11.07;;;;;;;;;;4535803;28;20099;-61
2023/02/05 12:34:23;;;;;;;11.02;10.13;;;;;;;;;;4536132;28;20033;-61
2023/02/05 12:36:44;;;;;;;11.93;10.93;;;;;;;;;;4532497;28;20033;-61
2023/02/05 12:38:54;;;;;;;11.27;10.38;;;;;;;;;;4497422;28;20144;-61
2023/02/05 12:41:05;;;;;;;12.20;11.20;;;;;;;;;;4534390;28;20311;-61
2023/02/05 12:43:24;;;;;;;11.70;10.80;;;;;;;;;;4533844;28;20032;-62
2023/02/05 12:45:34;;;;;;;12.93;11.82;;;;;;;;;;4534925;28;20741;-62
2023/02/05 12:47:51;;;;;;;11.73;10.82;;;;;;;;;;4534148;28;20036;-62
2023/02/05 12:50:01;;;;;;;13.00;11.90;;;;;;;;;;4534388;28;20110;-62
2023/02/05 12:52:20;;;;;;;12.98;11.90;;;;;;;;;;4535155;28;20059;-62
2023/02/05 12:54:50;;;;;;;13.68;12.57;;;;;;;;;;4511119;28;20033;-62
2023/02/05 12:57:10;;;;;;;14.43;13.23;;;;;;;;;;4517496;28;20116;-62
2023/02/05 12:59:35;;;;;;;12.30;11.30;;;;;;;;;;4533656;28;20783;-62
2023/02/05 13:01:49;;;;;;;15.15;13.95;;;;;;;;;;4534867;28;20041;-62
2023/02/05 13:04:00;;;;;;;13.27;12.18;;;;;;;;;;4534220;28;20037;-62
2023/02/05 13:06:15;;;;;;;8.60;7.90;;;;;;;;;;4516135;28;20107;-62
2023/02/05 13:08:42;;;;;;;15.38;14.07;;;;;;;;;;4516879;28;20164;-61
2023/02/05 13:10:55;;;;;;;16.05;14.75;;;;;;;;;;4516599;28;20046;-61
2023/02/05 13:13:10;;;;;;;16.50;15.13;;;;;;;;;;4510820;28;20141;-63
2023/02/05 13:15:23;;;;;;;17.77;16.27;;;;;;;;;;4534270;28;20579;-62
2023/02/05 13:17:35;;;;;;;17.67;16.17;;;;;;;;;;4534282;28;20040;-61
2023/02/05 13:19:51;;;;;;;17.05;15.65;;;;;;;;;;4534446;28;20586;-61